sensor_id;sensor_type;location;lat;lon;timestamp;pressure;altitude;pressure_sealevel;temperature;humidity
72921;BME280;61064;51.654;5.476;2023-04-30T00:00:07;102401.41;;;8.91;70.90
72921;BME280;61064;51.654;5.476;2023-04-30T00:02:34;102403.88;;;8.86;71.20
72921;BME280;61064;51.654;5.476;2023-04-30T00:04:59;102398.47;;;8.83;71.12
72921;BME280;61064;51.654;5.476;2023-04-30T00:07:25;102396.59;;;8.81;71.19
72921;BME280;61064;51.654;5.476;2023-04-30T00:09:50;102390.28;;;8.77;71.56
72921;BME280;61064;51.654;5.476;2023-04-30T00:12:16;102382.22;;;8.74;71.62
72921;BME280;61064;51.654;5.476;2023-04-30T00:14:41;102376.69;;;8.69;71.62
72921;BME280;61064;51.654;5.476;2023-04-30T00:17:06;102394.31;;;8.67;71.55
72921;BME280;61064;51.654;5.476;2023-04-30T00:19:32;102401.31;;;8.65;71.65
72921;BME280;61064;51.654;5.476;2023-04-30T00:21:57;102400.38;;;8.63;72.13
72921;BME280;61064;51.654;5.476;2023-04-30T00:24:25;102394.00;;;8.60;72.15
72921;BME280;61064;51.654;5.476;2023-04-30T00:26:51;102382.38;;;8.56;72.32
72921;BME280;61064;51.654;5.476;2023-04-30T00:29:16;102392.94;;;8.55;72.27
72921;BME280;61064;51.654;5.476;2023-04-30T00:31:41;102393.66;;;8.51;72.47
72921;BME280;61064;51.654;5.476;2023-04-30T00:34:07;102394.44;;;8.48;72.54
72921;BME280;61064;51.654;5.476;2023-04-30T00:36:32;102402.22;;;8.44;72.64
72921;BME280;61064;51.654;5.476;2023-04-30T00:38:57;102397.63;;;8.40;72.93
72921;BME280;61064;51.654;5.476;2023-04-30T00:41:24;102382.47;;;8.36;72.89
72921;BME280;61064;51.654;5.476;2023-04-30T00:43:52;102397.47;;;8.35;73.09
72921;BME280;61064;51.654;5.476;2023-04-30T00:46:18;102390.19;;;8.31;73.19
72921;BME280;61064;51.654;5.476;2023-04-30T00:48:43;102396.28;;;8.28;73.17
72921;BME280;61064;51.654;5.476;2023-04-30T00:51:08;102400.47;;;8.23;73.09
72921;BME280;61064;51.654;5.476;2023-04-30T00:53:35;102389.88;;;8.23;73.23
72921;BME280;61064;51.654;5.476;2023-04-30T00:56:01;102392.53;;;8.23;73.25
72921;BME280;61064;51.654;5.476;2023-04-30T00:58:26;102392.38;;;8.20;73.48
72921;BME280;61064;51.654;5.476;2023-04-30T01:00:52;102395.00;;;8.19;73.62
72921;BME280;61064;51.654;5.476;2023-04-30T01:03:17;102390.41;;;8.15;73.63
72921;BME280;61064;51.654;5.476;2023-04-30T01:05:43;102392.94;;;8.12;73.69
72921;BME280;61064;51.654;5.476;2023-04-30T01:08:09;102388.41;;;8.09;73.68
72921;BME280;61064;51.654;5.476;2023-04-30T01:10:40;102381.06;;;8.02;73.84
72921;BME280;61064;51.654;5.476;2023-04-30T01:13:28;102387.22;;;8.03;74.18
72921;BME280;61064;51.654;5.476;2023-04-30T01:16:18;102381.88;;;8.01;73.94
72921;BME280;61064;51.654;5.476;2023-04-30T01:19:34;102383.50;;;7.98;74.15
72921;BME280;61064;51.654;5.476;2023-04-30T01:22:03;102374.41;;;7.91;74.14
72921;BME280;61064;51.654;5.476;2023-04-30T01:29:49;102393.53;;;7.84;74.33
72921;BME280;61064;51.654;5.476;2023-04-30T01:32:16;102398.69;;;7.81;74.17
72921;BME280;61064;51.654;5.476;2023-04-30T01:34:41;102392.25;;;7.74;74.50
72921;BME280;61064;51.654;5.476;2023-04-30T01:42:41;102402.78;;;7.73;74.97
72921;BME280;61064;51.654;5.476;2023-04-30T01:45:17;102404.50;;;7.72;75.09
72921;BME280;61064;51.654;5.476;2023-04-30T01:51:31;102401.47;;;7.63;75.16
72921;BME280;61064;51.654;5.476;2023-04-30T01:53:41;102400.41;;;7.60;75.04
72921;BME280;61064;51.654;5.476;2023-04-30T01:56:27;102398.56;;;7.57;75.13
72921;BME280;61064;51.654;5.476;2023-04-30T01:58:55;102398.50;;;7.56;75.28
72921;BME280;61064;51.654;5.476;2023-04-30T02:01:29;102399.25;;;7.53;75.41
72921;BME280;61064;51.654;5.476;2023-04-30T02:03:55;102395.50;;;7.48;75.33
72921;BME280;61064;51.654;5.476;2023-04-30T02:06:22;102394.53;;;7.46;75.49
72921;BME280;61064;51.654;5.476;2023-04-30T02:08:53;102393.56;;;7.44;75.59
72921;BME280;61064;51.654;5.476;2023-04-30T02:11:19;102397.94;;;7.43;75.72
72921;BME280;61064;51.654;5.476;2023-04-30T02:13:45;102399.63;;;7.41;75.67
72921;BME280;61064;51.654;5.476;2023-04-30T02:16:10;102391.63;;;7.40;75.85
72921;BME280;61064;51.654;5.476;2023-04-30T02:18:35;102394.13;;;7.37;76.32
72921;BME280;61064;51.654;5.476;2023-04-30T02:21:01;102392.25;;;7.34;75.95
72921;BME280;61064;51.654;5.476;2023-04-30T02:23:26;102401.94;;;7.34;76.01
72921;BME280;61064;51.654;5.476;2023-04-30T02:25:51;102389.47;;;7.31;76.28
72921;BME280;61064;51.654;5.476;2023-04-30T02:28:17;102403.53;;;7.30;76.30
72921;BME280;61064;51.654;5.476;2023-04-30T02:30:44;102384.88;;;7.27;76.11
72921;BME280;61064;51.654;5.476;2023-04-30T02:33:09;102400.75;;;7.27;76.28
72921;BME280;61064;51.654;5.476;2023-04-30T02:35:36;102399.72;;;7.24;76.21
72921;BME280;61064;51.654;5.476;2023-04-30T02:38:02;102400.56;;;7.23;76.73
72921;BME280;61064;51.654;5.476;2023-04-30T02:40:27;102395.06;;;7.18;76.46
72921;BME280;61064;51.654;5.476;2023-04-30T02:42:52;102395.06;;;7.18;76.56
72921;BME280;61064;51.654;5.476;2023-04-30T02:45:19;102392.25;;;7.15;76.62
72921;BME280;61064;51.654;5.476;2023-04-30T02:47:44;102401.03;;;7.14;76.75
72921;BME280;61064;51.654;5.476;2023-04-30T02:50:09;102395.63;;;7.11;76.79
72921;BME280;61064;51.654;5.476;2023-04-30T02:52:35;102390.94;;;7.05;76.88
72921;BME280;61064;51.654;5.476;2023-04-30T02:55:00;102395.34;;;7.05;76.63
72921;BME280;61064;51.654;5.476;2023-04-30T02:57:25;102404.94;;;7.03;76.71
72921;BME280;61064;51.654;5.476;2023-04-30T02:59:51;102405.63;;;6.99;77.06
72921;BME280;61064;51.654;5.476;2023-04-30T03:02:16;102401.13;;;6.96;76.85
72921;BME280;61064;51.654;5.476;2023-04-30T03:04:45;102399.25;;;6.94;77.26
72921;BME280;61064;51.654;5.476;2023-04-30T03:07:10;102394.69;;;6.91;77.33
72921;BME280;61064;51.654;5.476;2023-04-30T03:09:36;102385.66;;;6.86;77.26
72921;BME280;61064;51.654;5.476;2023-04-30T03:12:01;102390.03;;;6.86;77.08
72921;BME280;61064;51.654;5.476;2023-04-30T03:14:26;102399.72;;;6.85;77.55
72921;BME280;61064;51.654;5.476;2023-04-30T03:16:52;102393.47;;;6.83;77.46
72921;BME280;61064;51.654;5.476;2023-04-30T03:19:17;102408.28;;;6.80;77.36
72921;BME280;61064;51.654;5.476;2023-04-30T03:21:46;102403.81;;;6.79;77.66
72921;BME280;61064;51.654;5.476;2023-04-30T03:24:11;102400.13;;;6.75;77.51
72921;BME280;61064;51.654;5.476;2023-04-30T03:26:36;102407.09;;;6.73;77.69
72921;BME280;61064;51.654;5.476;2023-04-30T03:29:02;102402.56;;;6.71;77.83
72921;BME280;61064;51.654;5.476;2023-04-30T03:31:27;102401.59;;;6.68;77.92
72921;BME280;61064;51.654;5.476;2023-04-30T03:33:52;102401.34;;;6.64;77.89
72921;BME280;61064;51.654;5.476;2023-04-30T03:36:18;102394.13;;;6.60;77.76
72921;BME280;61064;51.654;5.476;2023-04-30T03:38:43;102406.59;;;6.62;77.85
72921;BME280;61064;51.654;5.476;2023-04-30T03:41:08;102399.31;;;6.58;77.81
72921;BME280;61064;51.654;5.476;2023-04-30T03:43:34;102406.44;;;6.59;77.89
72921;BME280;61064;51.654;5.476;2023-04-30T03:45:59;102397.47;;;6.56;78.12
72921;BME280;61064;51.654;5.476;2023-04-30T03:48:24;102400.94;;;6.55;77.97
72921;BME280;61064;51.654;5.476;2023-04-30T03:50:50;102407.94;;;6.54;77.76
72921;BME280;61064;51.654;5.476;2023-04-30T03:53:15;102401.63;;;6.51;78.03
72921;BME280;61064;51.654;5.476;2023-04-30T03:55:41;102398.16;;;6.52;78.07
72921;BME280;61064;51.654;5.476;2023-04-30T03:58:06;102394.53;;;6.50;78.16
72921;BME280;61064;51.654;5.476;2023-04-30T04:00:32;102397.09;;;6.48;78.55
72921;BME280;61064;51.654;5.476;2023-04-30T04:02:58;102392.78;;;6.50;78.35
72921;BME280;61064;51.654;5.476;2023-04-30T04:05:23;102397.28;;;6.53;78.71
72921;BME280;61064;51.654;5.476;2023-04-30T04:07:48;102407.88;;;6.53;78.47
72921;BME280;61064;51.654;5.476;2023-04-30T04:10:14;102401.63;;;6.51;78.35
72921;BME280;61064;51.654;5.476;2023-04-30T04:12:39;102400.84;;;6.53;78.86
72921;BME280;61064;51.654;5.476;2023-04-30T04:15:05;102401.66;;;6.52;78.77
72921;BME280;61064;51.654;5.476;2023-04-30T04:17:31;102402.53;;;6.51;78.98
72921;BME280;61064;51.654;5.476;2023-04-30T04:19:56;102405.91;;;6.49;78.82
72921;BME280;61064;51.654;5.476;2023-04-30T04:22:22;102402.28;;;6.47;78.94
72921;BME280;61064;51.654;5.476;2023-04-30T04:24:48;102404.06;;;6.46;78.60
72921;BME280;61064;51.654;5.476;2023-04-30T04:27:13;102407.56;;;6.47;78.75
72921;BME280;61064;51.654;5.476;2023-04-30T04:29:38;102405.63;;;6.43;79.13
72921;BME280;61064;51.654;5.476;2023-04-30T04:32:04;102406.44;;;6.42;78.98
72921;BME280;61064;51.654;5.476;2023-04-30T04:34:30;102409.03;;;6.40;79.14
72921;BME280;61064;51.654;5.476;2023-04-30T04:36:55;102404.38;;;6.35;79.16
72921;BME280;61064;51.654;5.476;2023-04-30T04:39:22;102402.38;;;6.31;79.11
72921;BME280;61064;51.654;5.476;2023-04-30T04:41:47;102408.75;;;6.34;79.43
72921;BME280;61064;51.654;5.476;2023-04-30T04:44:12;102412.31;;;6.35;79.52
72921;BME280;61064;51.654;5.476;2023-04-30T04:46:38;102400.72;;;6.33;79.48
72921;BME280;61064;51.654;5.476;2023-04-30T04:49:03;102413.13;;;6.34;79.65
72921;BME280;61064;51.654;5.476;2023-04-30T04:51:29;102412.22;;;6.33;79.57
72921;BME280;61064;51.654;5.476;2023-04-30T04:53:54;102407.75;;;6.32;79.37
72921;BME280;61064;51.654;5.476;2023-04-30T04:56:19;102411.44;;;6.36;79.48
72921;BME280;61064;51.654;5.476;2023-04-30T04:58:46;102417.88;;;6.41;79.70
72921;BME280;61064;51.654;5.476;2023-04-30T05:01:11;102416.97;;;6.40;79.55
72921;BME280;61064;51.654;5.476;2023-04-30T05:03:37;102426.03;;;6.45;79.50
72921;BME280;61064;51.654;5.476;2023-04-30T05:06:03;102417.19;;;6.45;79.53
72921;BME280;61064;51.654;5.476;2023-04-30T05:08:28;102424.44;;;6.49;79.80
72921;BME280;61064;51.654;5.476;2023-04-30T05:10:54;102422.81;;;6.52;79.92
72921;BME280;61064;51.654;5.476;2023-04-30T05:13:19;102428.19;;;6.54;79.78
72921;BME280;61064;51.654;5.476;2023-04-30T05:15:46;102425.78;;;6.58;79.95
72921;BME280;61064;51.654;5.476;2023-04-30T05:18:11;102415.13;;;6.57;80.00
72921;BME280;61064;51.654;5.476;2023-04-30T05:20:36;102419.94;;;6.65;80.07
72921;BME280;61064;51.654;5.476;2023-04-30T05:23:02;102431.56;;;6.69;80.33
72921;BME280;61064;51.654;5.476;2023-04-30T05:25:27;102421.84;;;6.68;80.66
72921;BME280;61064;51.654;5.476;2023-04-30T05:27:54;102426.53;;;6.74;80.64
72921;BME280;61064;51.654;5.476;2023-04-30T05:30:20;102426.81;;;6.80;80.52
72921;BME280;61064;51.654;5.476;2023-04-30T05:32:45;102424.38;;;6.84;80.63
72921;BME280;61064;51.654;5.476;2023-04-30T05:35:15;102423.59;;;6.87;81.00
72921;BME280;61064;51.654;5.476;2023-04-30T05:37:41;102420.59;;;6.98;81.30
72921;BME280;61064;51.654;5.476;2023-04-30T05:40:06;102415.06;;;7.12;80.99
72921;BME280;61064;51.654;5.476;2023-04-30T05:42:32;102419.28;;;7.27;80.84
72921;BME280;61064;51.654;5.476;2023-04-30T05:44:57;102419.97;;;7.42;80.83
72921;BME280;61064;51.654;5.476;2023-04-30T05:47:23;102412.56;;;7.55;80.92
72921;BME280;61064;51.654;5.476;2023-04-30T05:49:48;102418.59;;;7.71;80.73
72921;BME280;61064;51.654;5.476;2023-04-30T05:52:13;102421.88;;;7.86;80.80
72921;BME280;61064;51.654;5.476;2023-04-30T05:54:41;102408.13;;;7.95;80.83
72921;BME280;61064;51.654;5.476;2023-04-30T05:57:06;102410.69;;;8.14;80.89
72921;BME280;61064;51.654;5.476;2023-04-30T05:59:31;102412.31;;;8.31;80.91
72921;BME280;61064;51.654;5.476;2023-04-30T06:01:57;102405.69;;;8.43;80.93
72921;BME280;61064;51.654;5.476;2023-04-30T06:04:22;102416.03;;;8.57;80.60
72921;BME280;61064;51.654;5.476;2023-04-30T06:06:48;102413.91;;;8.71;80.84
72921;BME280;61064;51.654;5.476;2023-04-30T06:09:13;102409.91;;;8.82;80.60
72921;BME280;61064;51.654;5.476;2023-04-30T06:11:38;102409.66;;;8.98;80.71
72921;BME280;61064;51.654;5.476;2023-04-30T06:14:04;102412.03;;;9.14;80.68
72921;BME280;61064;51.654;5.476;2023-04-30T06:16:30;102406.28;;;9.26;80.44
72921;BME280;61064;51.654;5.476;2023-04-30T06:18:55;102398.06;;;9.44;80.06
72921;BME280;61064;51.654;5.476;2023-04-30T06:21:21;102395.84;;;9.56;79.88
72921;BME280;61064;51.654;5.476;2023-04-30T06:23:50;102396.28;;;9.68;79.56
72921;BME280;61064;51.654;5.476;2023-04-30T06:26:15;102399.31;;;9.79;79.53
72921;BME280;61064;51.654;5.476;2023-04-30T06:28:41;102397.94;;;9.90;79.27
72921;BME280;61064;51.654;5.476;2023-04-30T06:31:06;102403.75;;;10.05;79.43
72921;BME280;61064;51.654;5.476;2023-04-30T06:33:31;102407.84;;;10.21;79.13
72921;BME280;61064;51.654;5.476;2023-04-30T06:35:57;102409.09;;;10.32;78.80
72921;BME280;61064;51.654;5.476;2023-04-30T06:38:22;102407.88;;;10.48;78.80
72921;BME280;61064;51.654;5.476;2023-04-30T06:40:48;102402.03;;;10.61;78.26
72921;BME280;61064;51.654;5.476;2023-04-30T06:43:13;102408.66;;;10.73;78.50
72921;BME280;61064;51.654;5.476;2023-04-30T06:45:39;102406.50;;;10.90;78.16
72921;BME280;61064;51.654;5.476;2023-04-30T06:48:04;102402.41;;;11.01;77.92
72921;BME280;61064;51.654;5.476;2023-04-30T06:50:29;102409.81;;;11.11;77.54
72921;BME280;61064;51.654;5.476;2023-04-30T06:52:55;102409.25;;;11.23;77.33
72921;BME280;61064;51.654;5.476;2023-04-30T06:55:20;102403.31;;;11.33;77.23
72921;BME280;61064;51.654;5.476;2023-04-30T06:57:46;102411.72;;;11.47;76.85
72921;BME280;61064;51.654;5.476;2023-04-30T07:00:11;102398.59;;;11.54;76.61
72921;BME280;61064;51.654;5.476;2023-04-30T07:02:39;102406.13;;;11.71;76.39
72921;BME280;61064;51.654;5.476;2023-04-30T07:05:04;102406.44;;;11.80;76.15
72921;BME280;61064;51.654;5.476;2023-04-30T07:07:30;102408.53;;;11.93;76.13
72921;BME280;61064;51.654;5.476;2023-04-30T07:09:56;102399.03;;;12.02;75.61
72921;BME280;61064;51.654;5.476;2023-04-30T07:12:22;102399.94;;;12.04;75.53
72921;BME280;61064;51.654;5.476;2023-04-30T07:14:47;102406.53;;;12.19;75.58
72921;BME280;61064;51.654;5.476;2023-04-30T07:17:13;102400.63;;;12.32;75.46
72921;BME280;61064;51.654;5.476;2023-04-30T07:19:38;102411.69;;;12.47;74.98
72921;BME280;61064;51.654;5.476;2023-04-30T07:22:03;102410.97;;;12.56;74.95
72921;BME280;61064;51.654;5.476;2023-04-30T07:24:29;102406.69;;;12.62;74.45
72921;BME280;61064;51.654;5.476;2023-04-30T07:26:55;102397.09;;;12.70;74.39
72921;BME280;61064;51.654;5.476;2023-04-30T07:29:20;102397.28;;;12.79;74.42
72921;BME280;61064;51.654;5.476;2023-04-30T07:31:46;102387.75;;;12.90;74.05
72921;BME280;61064;51.654;5.476;2023-04-30T07:34:11;102391.63;;;13.06;73.70
72921;BME280;61064;51.654;5.476;2023-04-30T07:36:37;102386.28;;;13.06;73.26
72921;BME280;61064;51.654;5.476;2023-04-30T07:39:03;102390.91;;;13.12;73.21
72921;BME280;61064;51.654;5.476;2023-04-30T07:41:29;102387.53;;;13.20;73.31
72921;BME280;61064;51.654;5.476;2023-04-30T07:43:55;102376.94;;;13.26;73.27
72921;BME280;61064;51.654;5.476;2023-04-30T07:46:21;102375.56;;;13.47;72.99
72921;BME280;61064;51.654;5.476;2023-04-30T07:48:47;102389.16;;;13.59;72.54
72921;BME280;61064;51.654;5.476;2023-04-30T07:51:12;102390.13;;;13.62;72.11
72921;BME280;61064;51.654;5.476;2023-04-30T07:53:37;102392.84;;;13.65;72.08
72921;BME280;61064;51.654;5.476;2023-04-30T07:56:03;102395.69;;;13.74;72.13
72921;BME280;61064;51.654;5.476;2023-04-30T07:58:28;102408.47;;;13.91;71.82
72921;BME280;61064;51.654;5.476;2023-04-30T08:00:54;102395.38;;;14.07;71.43
72921;BME280;61064;51.654;5.476;2023-04-30T08:03:19;102394.75;;;14.24;71.04
72921;BME280;61064;51.654;5.476;2023-04-30T08:05:46;102401.22;;;14.36;70.49
72921;BME280;61064;51.654;5.476;2023-04-30T08:08:11;102387.91;;;14.41;70.37
72921;BME280;61064;51.654;5.476;2023-04-30T08:10:37;102392.53;;;14.51;70.33
72921;BME280;61064;51.654;5.476;2023-04-30T08:13:03;102390.00;;;14.62;70.12
72921;BME280;61064;51.654;5.476;2023-04-30T08:15:29;102395.53;;;14.72;69.76
72921;BME280;61064;51.654;5.476;2023-04-30T08:17:54;102397.44;;;14.82;69.67
72921;BME280;61064;51.654;5.476;2023-04-30T08:20:20;102396.75;;;14.95;69.55
72921;BME280;61064;51.654;5.476;2023-04-30T08:22:47;102397.84;;;15.13;69.09
72921;BME280;61064;51.654;5.476;2023-04-30T08:25:13;102406.06;;;15.25;68.78
72921;BME280;61064;51.654;5.476;2023-04-30T08:27:38;102407.03;;;15.31;68.45
72921;BME280;61064;51.654;5.476;2023-04-30T08:30:05;102398.13;;;15.35;68.05
72921;BME280;61064;51.654;5.476;2023-04-30T08:32:33;102389.31;;;15.46;68.12
72921;BME280;61064;51.654;5.476;2023-04-30T08:34:59;102401.16;;;15.63;67.77
72921;BME280;61064;51.654;5.476;2023-04-30T08:37:24;102387.81;;;15.69;67.51
72921;BME280;61064;51.654;5.476;2023-04-30T08:39:50;102396.88;;;15.80;67.56
72921;BME280;61064;51.654;5.476;2023-04-30T08:42:16;102394.31;;;15.95;67.19
72921;BME280;61064;51.654;5.476;2023-04-30T08:44:43;102389.97;;;16.11;66.62
72921;BME280;61064;51.654;5.476;2023-04-30T08:47:10;102386.53;;;16.26;66.52
72921;BME280;61064;51.654;5.476;2023-04-30T08:49:39;102396.47;;;16.40;65.91
72921;BME280;61064;51.654;5.476;2023-04-30T08:52:06;102392.03;;;16.45;65.82
72921;BME280;61064;51.654;5.476;2023-04-30T08:54:32;102395.69;;;16.55;65.35
72921;BME280;61064;51.654;5.476;2023-04-30T08:56:57;102384.03;;;16.56;65.25
72921;BME280;61064;51.654;5.476;2023-04-30T08:59:22;102390.41;;;16.67;65.50
72921;BME280;61064;51.654;5.476;2023-04-30T09:01:48;102391.44;;;16.83;64.83
72921;BME280;61064;51.654;5.476;2023-04-30T09:04:13;102381.63;;;16.94;64.08
72921;BME280;61064;51.654;5.476;2023-04-30T09:06:39;102382.53;;;17.00;63.87
72921;BME280;61064;51.654;5.476;2023-04-30T09:09:15;102382.59;;;17.10;63.53
72921;BME280;61064;51.654;5.476;2023-04-30T09:11:40;102372.78;;;17.21;63.32
72921;BME280;61064;51.654;5.476;2023-04-30T09:14:09;102380.88;;;17.34;62.68
72921;BME280;61064;51.654;5.476;2023-04-30T09:16:48;102382.69;;;17.38;62.82
72921;BME280;61064;51.654;5.476;2023-04-30T09:19:25;102377.31;;;17.48;62.09
72921;BME280;61064;51.654;5.476;2023-04-30T09:21:51;102369.28;;;17.58;62.17
72921;BME280;61064;51.654;5.476;2023-04-30T09:24:16;102369.31;;;17.67;62.12
72921;BME280;61064;51.654;5.476;2023-04-30T09:26:42;102363.03;;;17.70;61.93
72921;BME280;61064;51.654;5.476;2023-04-30T09:29:08;102376.50;;;17.79;61.35
72921;BME280;61064;51.654;5.476;2023-04-30T09:31:40;102374.72;;;17.79;60.91
72921;BME280;61064;51.654;5.476;2023-04-30T09:34:05;102363.06;;;17.85;61.40
72921;BME280;61064;51.654;5.476;2023-04-30T09:36:31;102370.25;;;17.98;60.79
72921;BME280;61064;51.654;5.476;2023-04-30T09:39:11;102364.84;;;18.01;59.96
72921;BME280;61064;51.654;5.476;2023-04-30T09:41:38;102359.47;;;18.10;60.00
72921;BME280;61064;51.654;5.476;2023-04-30T09:44:04;102345.09;;;18.20;59.97
72921;BME280;61064;51.654;5.476;2023-04-30T09:46:31;102345.06;;;18.34;60.06
72921;BME280;61064;51.654;5.476;2023-04-30T09:48:58;102355.81;;;18.54;59.26
72921;BME280;61064;51.654;5.476;2023-04-30T09:51:27;102345.03;;;18.66;58.97
72921;BME280;61064;51.654;5.476;2023-04-30T09:53:53;102341.41;;;18.78;59.08
72921;BME280;61064;51.654;5.476;2023-04-30T09:56:21;102335.97;;;18.85;58.26
72921;BME280;61064;51.654;5.476;2023-04-30T09:58:49;102353.03;;;18.90;57.98
72921;BME280;61064;51.654;5.476;2023-04-30T10:01:17;102335.94;;;18.93;57.94
72921;BME280;61064;51.654;5.476;2023-04-30T10:03:44;102343.09;;;19.04;57.43
72921;BME280;61064;51.654;5.476;2023-04-30T10:06:12;102339.44;;;19.11;57.12
72921;BME280;61064;51.654;5.476;2023-04-30T10:08:50;102326.84;;;19.15;57.18
72921;BME280;61064;51.654;5.476;2023-04-30T10:11:20;102331.22;;;19.36;57.26
72921;BME280;61064;51.654;5.476;2023-04-30T10:14:09;102327.59;;;19.44;56.77
72921;BME280;61064;51.654;5.476;2023-04-30T10:16:52;102324.84;;;19.50;56.90
72921;BME280;61064;51.654;5.476;2023-04-30T10:19:24;102332.00;;;19.59;56.17
72921;BME280;61064;51.654;5.476;2023-04-30T10:21:50;102318.47;;;19.64;56.56
72921;BME280;61064;51.654;5.476;2023-04-30T10:24:17;102328.28;;;19.77;55.90
72921;BME280;61064;51.654;5.476;2023-04-30T10:26:45;102319.19;;;19.88;56.11
72921;BME280;61064;51.654;5.476;2023-04-30T10:29:12;102322.59;;;20.07;55.92
72921;BME280;61064;51.654;5.476;2023-04-30T10:31:40;102308.03;;;20.23;55.31
72921;BME280;61064;51.654;5.476;2023-04-30T10:34:17;102322.41;;;20.33;54.79
72921;BME280;61064;51.654;5.476;2023-04-30T10:36:49;102314.25;;;20.36;54.58
72921;BME280;61064;51.654;5.476;2023-04-30T10:39:22;102311.47;;;20.44;54.05
72921;BME280;61064;51.654;5.476;2023-04-30T10:42:00;102308.72;;;20.47;53.74
72921;BME280;61064;51.654;5.476;2023-04-30T10:44:26;102314.13;;;20.47;53.61
72921;BME280;61064;51.654;5.476;2023-04-30T10:47:00;102314.13;;;20.45;53.45
72921;BME280;61064;51.654;5.476;2023-04-30T10:49:26;102303.34;;;20.44;53.43
72921;BME280;61064;51.654;5.476;2023-04-30T10:51:52;102306.13;;;20.38;52.77
72921;BME280;61064;51.654;5.476;2023-04-30T10:54:30;102290.91;;;20.24;52.76
72921;BME280;61064;51.654;5.476;2023-04-30T10:57:12;102298.06;;;20.33;52.56
72921;BME280;61064;51.654;5.476;2023-04-30T11:02:39;102279.06;;;20.39;52.20
72921;BME280;61064;51.654;5.476;2023-04-30T11:07:32;102279.69;;;20.62;51.79
72921;BME280;61064;51.654;5.476;2023-04-30T11:09:59;102277.72;;;20.73;51.16
72921;BME280;61064;51.654;5.476;2023-04-30T11:12:27;102276.75;;;20.79;50.91
72921;BME280;61064;51.654;5.476;2023-04-30T11:15:00;102267.88;;;20.71;50.71
72921;BME280;61064;51.654;5.476;2023-04-30T11:17:31;102259.81;;;20.65;50.77
72921;BME280;61064;51.654;5.476;2023-04-30T11:20:04;102264.31;;;20.66;50.80
72921;BME280;61064;51.654;5.476;2023-04-30T11:22:31;102255.25;;;20.70;50.76
72921;BME280;61064;51.654;5.476;2023-04-30T11:25:08;102260.75;;;20.62;50.82
72921;BME280;61064;51.654;5.476;2023-04-30T11:27:40;102253.47;;;20.67;51.05
72921;BME280;61064;51.654;5.476;2023-04-30T11:30:33;102245.09;;;20.87;50.96
72921;BME280;61064;51.654;5.476;2023-04-30T11:32:59;102246.59;;;21.09;50.21
72921;BME280;61064;51.654;5.476;2023-04-30T11:35:28;102246.53;;;21.12;49.34
72921;BME280;61064;51.654;5.476;2023-04-30T11:37:54;102234.91;;;21.06;49.00
72921;BME280;61064;51.654;5.476;2023-04-30T11:40:21;102240.28;;;21.09;49.07
72921;BME280;61064;51.654;5.476;2023-04-30T11:42:49;102220.50;;;21.05;48.75
72921;BME280;61064;51.654;5.476;2023-04-30T11:45:18;102234.78;;;21.17;49.08
72921;BME280;61064;51.654;5.476;2023-04-30T11:47:49;102227.53;;;21.19;49.22
72921;BME280;61064;51.654;5.476;2023-04-30T11:50:19;102221.38;;;21.06;48.55
72921;BME280;61064;51.654;5.476;2023-04-30T11:52:56;102215.25;;;20.95;48.29
72921;BME280;61064;51.654;5.476;2023-04-30T11:55:41;102214.47;;;20.85;48.21
72921;BME280;61064;51.654;5.476;2023-04-30T11:58:08;102213.78;;;20.69;48.95
72921;BME280;61064;51.654;5.476;2023-04-30T12:00:34;102214.50;;;20.82;48.87
72921;BME280;61064;51.654;5.476;2023-04-30T12:03:00;102214.34;;;20.94;48.84
72921;BME280;61064;51.654;5.476;2023-04-30T12:05:27;102225.09;;;20.97;48.61
72921;BME280;61064;51.654;5.476;2023-04-30T12:08:03;102218.13;;;20.80;48.47
72921;BME280;61064;51.654;5.476;2023-04-30T12:10:38;102220.16;;;20.67;49.09
72921;BME280;61064;51.654;5.476;2023-04-30T12:13:03;102195.75;;;20.70;49.29
72921;BME280;61064;51.654;5.476;2023-04-30T12:15:28;102209.03;;;20.87;49.04
72921;BME280;61064;51.654;5.476;2023-04-30T12:17:56;102207.84;;;21.06;48.79
72921;BME280;61064;51.654;5.476;2023-04-30T12:20:29;102203.16;;;21.20;48.28
72921;BME280;61064;51.654;5.476;2023-04-30T12:22:56;102203.88;;;21.31;48.36
72921;BME280;61064;51.654;5.476;2023-04-30T12:25:23;102204.69;;;21.35;47.45
72921;BME280;61064;51.654;5.476;2023-04-30T12:27:52;102193.22;;;21.21;47.52
72921;BME280;61064;51.654;5.476;2023-04-30T12:30:23;102191.41;;;21.20;47.69
72921;BME280;61064;51.654;5.476;2023-04-30T12:32:51;102194.94;;;21.25;47.15
72921;BME280;61064;51.654;5.476;2023-04-30T12:35:19;102192.16;;;21.29;47.05
72921;BME280;61064;51.654;5.476;2023-04-30T12:37:50;102188.59;;;21.29;47.33
72921;BME280;61064;51.654;5.476;2023-04-30T12:40:20;102184.25;;;21.17;47.26
72921;BME280;61064;51.654;5.476;2023-04-30T12:42:46;102177.13;;;21.10;47.52
72921;BME280;61064;51.654;5.476;2023-04-30T12:45:12;102172.75;;;21.00;47.21
72921;BME280;61064;51.654;5.476;2023-04-30T12:47:41;102171.22;;;20.82;47.14
72921;BME280;61064;51.654;5.476;2023-04-30T12:50:09;102176.81;;;20.70;47.32
72921;BME280;61064;51.654;5.476;2023-04-30T12:52:36;102195.09;;;20.51;47.31
72921;BME280;61064;51.654;5.476;2023-04-30T12:55:14;102192.69;;;20.24;47.72
72921;BME280;61064;51.654;5.476;2023-04-30T12:57:40;102178.34;;;20.19;47.86
72921;BME280;61064;51.654;5.476;2023-04-30T13:00:06;102183.72;;;20.22;47.75
72921;BME280;61064;51.654;5.476;2023-04-30T13:02:32;102178.19;;;20.31;47.76
72921;BME280;61064;51.654;5.476;2023-04-30T13:04:58;102174.47;;;20.44;47.33
72921;BME280;61064;51.654;5.476;2023-04-30T13:07:24;102167.13;;;20.54;47.23
72921;BME280;61064;51.654;5.476;2023-04-30T13:09:49;102172.31;;;20.69;46.98
72921;BME280;61064;51.654;5.476;2023-04-30T13:12:15;102164.91;;;20.82;46.27
72921;BME280;61064;51.654;5.476;2023-04-30T13:14:40;102152.19;;;20.88;46.08